Time;durP1;ratioP1;P1;durP2;ratioP2;P2;SDS_P1;SDS_P2;PMS_P1;PMS_P2;Temp;Humidity;BMP_temperature;BMP_pressure;BME280_temperature;BME280_humidity;BME280_pressure;Samples;Min_cycle;Max_cycle;Signal;HPM_P1;HPM_P2
2022/08/11 00:02:34;;;;;;;4.57;4.10;;;16.90;1.00;;;;;;10505358;28;20188;-79
2022/08/11 00:07:57;;;;;;;5.43;4.47;;;16.80;1.00;;;;;;10476760;28;20291;-78
2022/08/11 00:13:19;;;;;;;3.97;3.42;;;16.80;1.00;;;;;;10402938;28;20243;-79
2022/08/11 00:18:44;;;;;;;5.75;3.88;;;16.80;1.00;;;;;;10428002;28;20235;-78
2022/08/11 00:24:07;;;;;;;6.10;3.90;;;16.80;1.00;;;;;;10435792;28;20191;-79
2022/08/11 00:29:28;;;;;;;4.60;3.35;;;16.80;1.00;;;;;;10436170;28;20613;-78
2022/08/11 00:34:50;;;;;;;6.55;4.03;;;16.70;1.00;;;;;;10427608;28;20219;-78
2022/08/11 00:40:22;;;;;;;8.20;4.72;;;16.60;1.00;;;;;;10459537;28;20231;-79
2022/08/11 00:46:04;;;;;;;5.05;4.05;;;16.40;1.00;;;;;;10443494;28;20223;-77
2022/08/11 00:51:53;;;;;;;6.50;4.78;;;16.40;1.00;;;;;;10442883;28;20195;-78
2022/08/11 00:57:30;;;;;;;4.75;3.78;;;16.40;1.00;;;;;;10444835;28;20200;-78
2022/08/11 01:03:12;;;;;;;7.03;3.65;;;16.40;1.00;;;;;;10442413;28;20502;-80
2022/08/11 01:09:10;;;;;;;4.55;3.50;;;16.40;1.00;;;;;;10441793;28;20216;-78
2022/08/11 01:15:02;;;;;;;6.45;4.07;;;16.30;1.00;;;;;;10406101;28;20389;-78
2022/08/11 01:20:52;;;;;;;4.72;4.13;;;16.30;1.00;;;;;;10401287;28;20246;-77
2022/08/11 01:26:38;;;;;;;4.32;3.75;;;16.30;1.00;;;;;;10443194;28;20591;-79
2022/08/11 01:32:18;;;;;;;5.88;3.78;;;16.30;1.00;;;;;;10442030;28;20263;-80
2022/08/11 01:38:07;;;;;;;3.95;3.55;;;16.30;1.00;;;;;;10441949;28;20202;-80
2022/08/11 01:50:02;;;;;;;3.58;3.05;;;16.30;1.00;;;;;;10475035;28;20298;-79
2022/08/11 01:55:38;;;;;;;4.38;2.97;;;16.20;1.00;;;;;;10462632;28;20202;-79
2022/08/11 02:01:31;;;;;;;4.10;3.70;;;16.10;1.00;;;;;;10480905;28;20200;-79
2022/08/11 02:07:09;;;;;;;4.90;3.30;;;16.10;1.00;;;;;;10396008;28;20436;-78
2022/08/11 02:12:39;;;;;;;3.50;2.90;;;;;;;;;;10346236;28;20242;-79
2022/08/11 02:18:07;;;;;;;3.78;3.33;;;;;;;;;;10370554;28;20229;-78
2022/08/11 02:23:42;;;;;;;3.75;3.10;;;15.90;1.00;;;;;;10355328;28;20208;-77
2022/08/11 02:29:16;;;;;;;4.45;3.72;;;;;;;;;;10338239;28;20240;-78
2022/08/11 02:34:43;;;;;;;4.97;3.40;;;16.20;1.00;;;;;;10354348;28;20209;-79
2022/08/11 02:40:37;;;;;;;5.63;3.67;;;15.70;1.00;;;;;;10348185;28;20227;-79
2022/08/11 02:46:26;;;;;;;4.85;3.58;;;15.50;1.00;;;;;;10437792;28;20298;-79
2022/08/11 02:52:24;;;;;;;4.07;3.10;;;15.50;1.00;;;;;;10423940;28;20211;-79
2022/08/11 02:58:03;;;;;;;3.90;3.45;;;15.40;1.00;;;;;;10463117;28;20199;-80
2022/08/11 03:03:38;;;;;;;4.80;3.72;;;15.50;1.00;;;;;;10479776;28;20211;-79
2022/08/11 03:09:23;;;;;;;5.32;4.30;;;15.40;1.00;;;;;;10448536;28;20231;-79
2022/08/11 03:21:20;;;;;;;5.93;4.30;;;15.40;1.00;;;;;;10437731;28;20453;-79
2022/08/11 03:27:05;;;;;;;6.18;4.47;;;15.40;1.00;;;;;;10464618;28;20218;-79
2022/08/11 03:34:00;;;;;;;5.85;4.18;;;;;;;;;;10452981;28;20235;-78
2022/08/11 03:38:44;;;;;;;4.82;3.75;;;15.20;1.00;;;;;;10435608;28;20393;-78
2022/08/11 03:44:23;;;;;;;7.65;4.53;;;15.20;1.00;;;;;;10437134;28;20522;-78
2022/08/11 03:50:05;;;;;;;5.68;3.78;;;15.20;1.00;;;;;;10435901;28;20225;-79
2022/08/11 03:55:50;;;;;;;8.00;5.10;;;15.20;1.00;;;;;;10441602;28;20193;-80
2022/08/11 04:01:32;;;;;;;5.20;4.18;;;15.30;1.00;;;;;;10476986;28;20267;-79
2022/08/11 04:07:25;;;;;;;4.47;3.60;;;15.30;1.00;;;;;;10462278;28;20249;-79
2022/08/11 04:13:11;;;;;;;4.78;3.30;;;15.40;1.00;;;;;;10421905;28;20249;-80
2022/08/11 04:18:50;;;;;;;4.28;2.90;;;15.60;1.00;;;;;;10395301;28;20236;-78
2022/08/11 04:24:11;;;;;;;3.45;2.85;;;15.70;1.00;;;;;;10395234;28;20282;-79
2022/08/11 04:30:04;;;;;;;3.30;2.83;;;15.70;1.00;;;;;;10395197;28;20526;-78
2022/08/11 04:35:50;;;;;;;3.10;2.78;;;15.70;1.00;;;;;;10408925;28;20527;-79
2022/08/11 05:06:33;;;;;;;4.30;2.80;;;16.40;41.00;;;;;;10353928;28;20551;-79
2022/08/11 05:12:48;;;;;;;6.25;2.75;;;16.50;58.50;;;;;;10376871;28;20207;-80
2022/08/11 05:35:49;;;;;;;5.72;2.88;;;17.30;95.70;;;;;;10259772;29;20450;-79
2022/08/11 05:58:19;;;;;;;3.50;2.50;;;17.90;89.60;;;;;;10470461;28;20195;-79
2022/08/11 06:09:33;;;;;;;7.97;4.40;;;18.30;27.80;;;;;;10432499;28;20274;-79
2022/08/11 06:14:56;;;;;;;7.95;4.60;;;18.70;1.00;;;;;;10410847;28;20426;-80
2022/08/11 06:20:19;;;;;;;4.97;2.97;;;19.00;1.00;;;;;;10438962;28;20236;-79
2022/08/11 06:25:40;;;;;;;7.85;3.45;;;19.50;1.00;;;;;;10425293;28;20215;-79
2022/08/11 06:31:22;;;;;;;4.35;2.80;;;20.10;1.00;;;;;;10437271;28;20192;-79
2022/08/11 06:36:54;;;;;;;2.72;2.45;;;20.80;99.90;;;;;;10438305;28;20494;-81
2022/08/11 06:42:37;;;;;;;6.22;2.85;;;22.00;1.00;;;;;;10454593;28;20203;-80
2022/08/11 06:48:00;;;;;;;5.55;1.92;;;23.40;1.00;;;;;;10437491;28;20531;-80
2022/08/11 06:53:22;;;;;;;5.63;2.58;;;24.00;99.90;;;;;;10454144;28;20196;-79
2022/08/11 07:04:38;;;;;;;5.65;2.80;;;25.60;1.00;;;;;;10438338;28;20271;-82
2022/08/11 07:16:23;;;;;;;3.42;2.25;;;26.50;1.00;;;;;;10424401;28;20272;-79
2022/08/11 07:33:38;;;;;;;6.78;2.55;;;28.10;1.00;;;;;;10275299;28;20221;-81
2022/08/11 07:39:01;;;;;;;5.60;2.17;;;28.30;99.90;;;;;;10274510;28;20202;-81
2022/08/11 07:44:28;;;;;;;5.18;2.40;;;28.40;99.90;;;;;;10295768;28;20202;-82
2022/08/11 07:55:34;;;;;;;2.35;1.85;;;29.30;99.90;;;;;;10300251;28;20505;-80
2022/08/11 08:18:04;;;;;;;3.17;2.60;;;30.50;97.70;;;;;;10286894;28;20206;-81
2022/08/11 08:23:32;;;;;;;4.47;2.13;;;30.20;67.40;;;;;;10287869;28;20200;-80
2022/08/11 08:30:46;;;;;;;3.83;1.95;;;30.90;67.60;;;;;;10262253;28;20250;-79
2022/08/11 08:34:39;;;;;;;3.33;1.60;;;31.50;31.10;;;;;;10291382;28;20198;-79
2022/08/11 08:40:02;;;;;;;3.00;2.15;;;31.80;1.00;;;;;;10278091;28;20225;-80
2022/08/11 08:45:26;;;;;;;3.70;1.88;;;31.90;1.00;;;;;;10282894;28;20207;-80
2022/08/11 08:56:39;;;;;;;2.80;1.40;;;31.80;1.00;;;;;;10293869;28;20756;-79
2022/08/11 09:02:03;;;;;;;1.95;1.60;;;32.10;1.00;;;;;;10317316;28;20209;-80
2022/08/11 09:07:26;;;;;;;2.15;1.40;;;32.60;1.00;;;;;;10282969;28;20340;-79
2022/08/11 09:12:52;;;;;;;4.68;1.67;;;33.00;1.00;;;;;;10270753;28;20206;-82
2022/08/11 09:18:16;;;;;;;2.45;1.52;;;33.30;1.00;;;;;;10284317;28;20246;-78
2022/08/11 09:29:27;;;;;;;5.50;2.50;;;33.40;1.00;;;;;;10284748;28;20256;-78
2022/08/11 09:34:51;;;;;;;4.22;1.40;;;33.90;1.00;;;;;;10307239;28;20199;-79
2022/08/11 09:40:29;;;;;;;6.50;1.67;;;33.50;1.00;;;;;;10260106;29;20682;-81
2022/08/11 09:45:52;;;;;;;1.70;1.60;;;33.30;1.00;;;;;;10260532;28;20199;-80
2022/08/11 09:51:16;;;;;;;1.95;1.63;;;33.60;1.00;;;;;;10231702;28;20491;-83
2022/08/11 10:02:21;;;;;;;2.13;1.35;;;33.30;1.00;;;;;;10297916;28;20290;-79
2022/08/11 10:07:49;;;;;;;2.53;1.40;;;33.10;1.00;;;;;;10263503;28;20544;-79
2022/08/11 10:13:24;;;;;;;1.70;1.30;;;33.40;1.00;;;;;;10295092;28;20214;-83
2022/08/11 10:18:52;;;;;;;5.30;1.67;;;34.30;1.00;;;;;;10310276;28;20195;-88
2022/08/11 10:35:34;;;;;;;1.40;1.13;;;33.70;1.00;;;;;;10298743;28;20201;-81
2022/08/11 11:03:40;;;;;;;4.30;2.53;;;34.80;1.00;;;;;;10283942;28;20203;-79
2022/08/11 11:09:21;;;;;;;2.63;2.20;;;35.20;1.00;;;;;;10278024;28;20254;-79
2022/08/11 11:20:39;;;;;;;4.70;1.50;;;35.00;1.00;;;;;;10295748;28;20199;-80
2022/08/11 11:26:28;;;;;;;2.20;1.50;;;34.80;1.00;;;;;;10267956;28;20274;-82
2022/08/11 11:32:08;;;;;;;1.48;1.30;;;34.50;1.00;;;;;;10207694;29;20255;-80
2022/08/11 11:37:35;;;;;;;2.20;1.50;;;34.40;1.00;;;;;;10210254;29;20200;-84
2022/08/11 11:42:59;;;;;;;2.67;1.35;;;34.60;1.00;;;;;;10215428;29;20517;-82
2022/08/11 11:48:20;;;;;;;2.05;1.40;;;34.60;1.00;;;;;;10228530;29;20593;-82
2022/08/11 11:53:44;;;;;;;9.10;1.70;;;34.20;1.00;;;;;;10201675;29;20208;-83
2022/08/11 12:04:47;;;;;;;5.95;1.70;;;33.90;1.00;;;;;;10207794;29;20248;-79
2022/08/11 12:10:09;;;;;;;3.40;1.75;;;33.90;1.00;;;;;;10190135;29;20232;-86
2022/08/11 12:15:32;;;;;;;4.65;1.60;;;33.70;1.00;;;;;;10197927;29;20224;-82
2022/08/11 12:20:53;;;;;;;2.67;1.30;;;32.90;1.00;;;;;;10229460;29;20188;-76
2022/08/11 12:31:59;;;;;;;5.53;2.30;;;32.80;1.00;;;;;;10267907;28;20253;-83
2022/08/11 12:37:36;;;;;;;3.53;1.90;;;32.60;1.00;;;;;;10224893;29;20255;-87
2022/08/11 12:54:55;;;;;;;1.52;1.42;;;31.20;1.00;;;;;;10238155;29;20222;-85
2022/08/11 13:06:02;;;;;;;2.03;1.60;;;31.10;1.00;;;;;;10275204;28;20199;-91
2022/08/11 13:17:21;;;;;;;1.77;1.63;;;31.40;1.00;;;;;;10289063;28;20202;-81
2022/08/11 13:22:46;;;;;;;3.97;3.20;;;31.50;1.00;;;;;;10275192;28;20544;-87
2022/08/11 13:28:08;;;;;;;5.57;2.42;;;31.50;1.00;;;;;;10282196;28;20266;-79
2022/08/11 13:33:32;;;;;;;5.50;2.30;;;31.70;1.00;;;;;;10305228;28;20249;-79
2022/08/11 13:38:57;;;;;;;2.55;1.85;;;31.90;1.00;;;;;;10276560;28;20274;-79
2022/08/11 13:44:19;;;;;;;3.08;1.60;;;31.50;1.00;;;;;;10308718;28;20717;-80
2022/08/11 13:49:46;;;;;;;4.88;1.83;;;30.70;1.00;;;;;;10324632;28;20479;-79
2022/08/11 13:55:20;;;;;;;4.45;2.00;;;30.50;1.00;;;;;;10272902;28;20233;-84
2022/08/11 14:00:47;;;;;;;4.05;1.90;;;30.60;1.00;;;;;;10297502;28;20201;-78
2022/08/11 14:06:09;;;;;;;1.70;1.60;;;30.60;1.00;;;;;;10261288;28;20478;-79
2022/08/11 14:17:15;;;;;;;4.32;1.90;;;30.30;1.00;;;;;;10282900;28;20256;-80
2022/08/11 14:22:40;;;;;;;6.82;2.25;;;30.10;1.00;;;;;;10279457;28;20202;-80
2022/08/11 14:28:04;;;;;;;2.33;1.98;;;29.70;1.00;;;;;;10298647;28;20227;-84
2022/08/11 14:33:26;;;;;;;2.65;1.42;;;29.80;1.00;;;;;;10262213;29;20203;-79
2022/08/11 14:38:49;;;;;;;4.63;2.40;;;29.70;1.00;;;;;;10271863;29;20207;-80
2022/08/11 14:49:54;;;;;;;5.20;1.55;;;29.30;1.00;;;;;;10293089;28;20233;-80
2022/08/11 15:01:00;;;;;;;2.20;1.65;;;29.30;1.00;;;;;;10271677;28;20494;-80
2022/08/11 15:06:24;;;;;;;3.22;2.00;;;29.20;1.00;;;;;;10266374;29;20587;-79
2022/08/11 15:17:27;;;;;;;5.07;2.42;;;28.80;1.00;;;;;;10276011;28;20195;-78
2022/08/11 15:45:50;;;;;;;4.03;1.90;;;28.00;1.00;;;;;;10275608;28;20200;-79
2022/08/11 15:51:15;;;;;;;2.60;1.65;;;27.80;1.00;;;;;;10303086;28;20412;-79
2022/08/11 15:56:42;;;;;;;3.55;1.98;;;27.70;1.00;;;;;;10315273;28;20270;-80
2022/08/11 16:07:48;;;;;;;3.33;1.25;;;27.50;1.00;;;;;;10274173;28;20261;-79
2022/08/11 16:18:53;;;;;;;3.20;1.80;;;26.80;1.00;;;;;;10265095;28;20455;-79
2022/08/11 16:24:16;;;;;;;4.38;1.63;;;26.70;1.00;;;;;;10283841;28;20505;-79
2022/08/11 16:29:46;;;;;;;4.65;2.35;;;26.60;1.00;;;;;;10281710;28;20325;-79
2022/08/11 16:40:58;;;;;;;2.70;1.27;;;26.30;1.00;;;;;;10313757;28;20370;-79
2022/08/11 16:52:04;;;;;;;3.75;1.60;;;25.90;1.00;;;;;;10279869;28;20251;-79
2022/08/11 17:14:38;;;;;;;11.98;3.83;;;25.30;1.00;;;;;;10262793;28;20191;-79
2022/08/11 17:20:08;;;;;;;13.77;3.95;;;25.10;1.00;;;;;;10280084;28;20262;-79
2022/08/11 17:25:32;;;;;;;8.38;2.90;;;24.90;1.00;;;;;;10280311;29;20222;-79
2022/08/11 17:36:43;;;;;;;3.45;1.95;;;24.50;1.00;;;;;;10129541;29;20519;-79
2022/08/11 18:04:56;;;;;;;1.88;1.40;;;23.80;1.00;;;;;;10141549;29;20209;-80
